• Join FlightAware (Why Join?)
  • Login
  • US Flag 
08:53AM EDT


 

Airport Tracker/Info


-or-


 

Live Flight TrackerFlight Track Log ✈ N22WU ✈ 08-Aug-2013 ✈ KBTL - KSBN

Flight Track Log - Related Links

Times and Time Zones

All times are in EDT time to prevent confusion due to time zone crossing. See the N22WU flight status page for this flight to view local times or setup timezone preferences in your user account.

Time Position Orientation Groundspeed Altitude Reporting Facility
EDT Latitude Longitude Course Direction KTS MPH feet Rate Location/Type
02:39PM 42.2664 -85.2425 233° Southwest 110 127 2,800  Level Chicago Center
02:40PM 42.2547 -85.2908 252° West 122 140 3,500 300 Climbing Chicago Center
02:41PM 42.2556 -85.3411 271° West 130 150 3,500 60 Level Chicago Center
02:42PM 42.2325 -85.3864 235° Southwest 149 171 3,700 -60 Climbing Chicago Center
02:43PM 42.1783 -85.4820 233° Southwest  Level Estimated
02:43PM 42.2064 -85.4306 231° Southwest 149 171 3,400  Level Chicago Center
02:44PM 42.1568 -85.5206 233° Southwest  Level Estimated
02:44PM 42.1764 -85.4828 232° Southwest 149 171 3,500  Level Chicago Center
02:45PM 42.1525 -85.5269 234° Southwest 147 169 3,500  Level Chicago Center
02:46PM 42.1292 -85.5719 235° Southwest 146 168 3,500  Level Chicago Center
02:47PM 42.1058 -85.6144 234° Southwest 144 166 3,500  Level Chicago Center
02:48PM 42.0814 -85.6572 232° Southwest 144 166 3,500  Level Chicago Center
02:49PM 42.0525 -85.7097 233° Southwest 145 167 3,500  Level Chicago Center
02:50PM 42.0283 -85.7531 233° Southwest 145 167 3,500  Level Chicago Center
02:51PM 42.0033 -85.7956 232° Southwest 145 167 3,500  Level Chicago Center
02:52PM 41.9797 -85.8386 234° Southwest 145 167 3,500  Level Chicago Center
02:53PM 41.9558 -85.8819 233° Southwest 145 167 3,500  Level Chicago Center
02:54PM 41.9267 -85.9328 232° Southwest 144 166 3,500  Level Chicago Center
02:55PM 41.9083 -85.9700 237° Southwest 145 167 3,500  Level Chicago Center
02:56PM 41.8797 -86.0225 234° Southwest 146 168 3,500  Level Chicago Center
02:57PM 41.8567 -86.0647 234° Southwest 144 166 3,500  Level Chicago Center
02:59PM 41.8333 -86.1069 233° Southwest 143 165 3,500  Level Chicago Center
03:00PM 41.8181 -86.1678 251° West 148 170 3,500 -120 Level Chicago Center
03:01PM 41.8072 -86.2183 254° West 145 167 3,300 -240 Descending Chicago Center
03:02PM 41.7986 -86.2714 258° West 145 167 3,000 -300 Descending Chicago Center